createdAt,value
2023-04-19T00:00:57.365Z,7.73
2023-04-19T00:03:28.073Z,8.77
2023-04-19T00:05:59.274Z,8.53
2023-04-19T00:08:29.361Z,8.53
2023-04-19T00:11:21.194Z,8.33
2023-04-19T00:13:51.715Z,8.03
2023-04-19T00:16:21.876Z,8.03
2023-04-19T00:18:52.766Z,9.00
2023-04-19T00:21:23.791Z,8.30
2023-04-19T00:23:54.191Z,8.40
2023-04-19T00:26:24.571Z,8.57
2023-04-19T00:28:55.286Z,7.73
2023-04-19T00:31:25.668Z,8.27
2023-04-19T00:33:56.750Z,8.10
2023-04-19T00:36:29.324Z,8.40
2023-04-19T00:38:59.444Z,8.27
2023-04-19T00:41:29.563Z,8.53
2023-04-19T00:44:01.318Z,8.70
2023-04-19T00:46:31.661Z,7.77
2023-04-19T00:49:03.395Z,7.93
2023-04-19T00:51:34.953Z,8.00
2023-04-19T00:54:08.556Z,8.78
2023-04-19T00:56:39.896Z,8.30
2023-04-19T00:59:12.072Z,9.33
2023-04-19T01:01:42.446Z,9.57
2023-04-19T01:04:13.079Z,8.80
2023-04-19T01:06:44.260Z,8.60
2023-04-19T01:09:14.176Z,8.30
2023-04-19T01:11:44.713Z,8.10
2023-04-19T01:14:15.519Z,8.67
2023-04-19T01:16:50.468Z,8.67
2023-04-19T01:19:20.995Z,8.65
2023-04-19T01:21:52.347Z,9.30
2023-04-19T01:24:22.886Z,8.83
2023-04-19T01:26:53.593Z,9.53
2023-04-19T01:29:23.525Z,9.60
2023-04-19T01:31:54.160Z,9.87
2023-04-19T01:34:24.583Z,9.83
2023-04-19T01:36:54.885Z,9.03
2023-04-19T01:39:27.890Z,10.03
2023-04-19T01:41:58.221Z,10.83
2023-04-19T01:44:28.728Z,9.57
2023-04-19T01:46:58.874Z,10.47
2023-04-19T01:49:29.380Z,9.80
2023-04-19T01:52:00.339Z,10.10
2023-04-19T01:54:30.630Z,10.13
2023-04-19T01:57:01.157Z,11.07
2023-04-19T01:59:32.298Z,10.60
2023-04-19T02:02:02.536Z,11.83
2023-04-19T02:04:35.412Z,10.03
2023-04-19T02:07:05.733Z,10.10
2023-04-19T02:09:37.925Z,11.27
2023-04-19T02:12:09.870Z,11.03
2023-04-19T02:14:40.385Z,11.57
2023-04-19T02:17:12.560Z,10.77
2023-04-19T02:19:42.871Z,11.17
2023-04-19T02:22:16.481Z,10.30
2023-04-19T02:24:50.478Z,10.80
2023-04-19T02:27:20.821Z,11.20
2023-04-19T02:29:53.586Z,10.27
2023-04-19T02:32:23.748Z,11.20
2023-04-19T02:35:09.386Z,10.70
2023-04-19T02:37:40.322Z,10.87
2023-04-19T02:40:12.474Z,11.13
2023-04-19T02:42:43.423Z,10.97
2023-04-19T02:45:15.181Z,10.70
2023-04-19T02:47:46.360Z,10.90
2023-04-19T02:50:18.234Z,10.13
2023-04-19T02:52:52.047Z,11.47
2023-04-19T02:55:24.027Z,12.05
2023-04-19T02:58:01.531Z,10.33
2023-04-19T03:00:33.321Z,10.13
2023-04-19T03:03:09.448Z,11.50
2023-04-19T03:05:39.680Z,11.77
2023-04-19T03:08:11.630Z,10.40
2023-04-19T03:10:42.367Z,10.73
2023-04-19T03:13:12.689Z,10.80
2023-04-19T03:15:43.669Z,10.37
2023-04-19T03:18:14.586Z,10.37
2023-04-19T03:20:45.494Z,12.13
2023-04-19T03:23:16.223Z,11.93
2023-04-19T03:25:46.568Z,12.30
2023-04-19T03:28:38.587Z,12.70
2023-04-19T03:31:21.458Z,11.27
2023-04-19T03:33:53.348Z,12.70
2023-04-19T03:36:26.749Z,12.33
2023-04-19T03:38:57.065Z,12.20
2023-04-19T03:41:28.030Z,12.17
2023-04-19T03:44:17.798Z,11.97
2023-04-19T03:49:44.647Z,12.70
2023-04-19T03:52:15.784Z,12.13
2023-04-19T03:54:46.101Z,12.87
2023-04-19T03:57:27.893Z,12.75
2023-04-19T03:59:58.634Z,12.63
2023-04-19T04:02:29.240Z,13.90
2023-04-19T04:05:00.293Z,15.10
2023-04-19T04:07:31.031Z,15.70
2023-04-19T04:10:01.846Z,14.53
2023-04-19T04:12:33.931Z,16.85
2023-04-19T04:15:07.741Z,17.30
2023-04-19T04:17:38.790Z,18.10
2023-04-19T04:20:16.073Z,15.63
2023-04-19T04:22:46.269Z,14.40
2023-04-19T04:25:20.569Z,13.62
2023-04-19T04:27:54.112Z,15.77
2023-04-19T04:32:58.885Z,13.07
2023-04-19T04:35:30.195Z,12.67
2023-04-19T04:38:21.564Z,14.13
2023-04-19T04:40:56.639Z,14.60
2023-04-19T04:43:29.352Z,16.95
2023-04-19T04:45:59.615Z,16.00
2023-04-19T04:48:34.780Z,15.33
2023-04-19T04:51:07.570Z,15.60
2023-04-19T04:53:38.503Z,16.20
2023-04-19T04:56:10.888Z,15.70
2023-04-19T04:58:40.992Z,17.48
2023-04-19T05:01:17.009Z,17.10
2023-04-19T05:03:47.603Z,16.17
2023-04-19T05:06:21.391Z,15.80
2023-04-19T05:08:51.706Z,16.60
2023-04-19T05:11:34.356Z,15.70
2023-04-19T05:14:04.838Z,16.33
2023-04-19T05:16:36.022Z,14.87
2023-04-19T05:19:06.508Z,16.40
2023-04-19T05:21:40.518Z,16.07
2023-04-19T05:24:15.960Z,15.90
2023-04-19T05:26:47.545Z,15.70
2023-04-19T05:29:18.855Z,15.37
2023-04-19T05:31:54.122Z,16.30
2023-04-19T05:34:38.087Z,17.13
2023-04-19T05:37:08.470Z,16.12
2023-04-19T05:39:40.210Z,16.13
2023-04-19T05:42:11.970Z,15.57
2023-04-19T05:44:42.299Z,14.97
2023-04-19T05:47:12.423Z,15.00
2023-04-19T05:50:14.515Z,14.27
2023-04-19T05:52:50.349Z,13.67
2023-04-19T05:55:21.483Z,14.03
2023-04-19T05:57:52.190Z,15.03
2023-04-19T06:00:27.921Z,13.00
2023-04-19T06:03:02.295Z,13.53
2023-04-19T06:05:32.843Z,13.77
2023-04-19T06:08:03.409Z,13.30
2023-04-19T06:10:44.517Z,13.13
2023-04-19T06:13:21.795Z,13.60
2023-04-19T06:15:52.372Z,13.60
2023-04-19T06:18:22.456Z,13.67
2023-04-19T06:20:55.021Z,12.33
2023-04-19T06:23:25.140Z,12.77
2023-04-19T06:25:55.676Z,14.17
2023-04-19T06:28:26.211Z,13.30
2023-04-19T06:30:56.930Z,12.83
2023-04-19T06:33:27.453Z,11.67
2023-04-19T06:35:57.772Z,12.60
2023-04-19T06:38:28.298Z,11.00
2023-04-19T06:40:58.621Z,10.63
2023-04-19T06:43:28.948Z,11.17
2023-04-19T06:46:04.144Z,11.40
2023-04-19T06:48:35.359Z,11.03
2023-04-19T06:51:07.492Z,10.63
2023-04-19T06:53:37.813Z,10.43
2023-04-19T06:56:09.726Z,10.80
2023-04-19T06:58:42.145Z,9.68
2023-04-19T07:01:12.736Z,10.50
2023-04-19T07:03:43.356Z,9.63
2023-04-19T07:06:14.136Z,10.70
2023-04-19T07:11:20.244Z,10.00
2023-04-19T07:13:51.658Z,9.60
2023-04-19T07:16:21.805Z,9.33
2023-04-19T07:18:51.906Z,10.40
2023-04-19T07:21:22.213Z,9.90
2023-04-19T07:23:52.551Z,9.70
2023-04-19T07:26:25.524Z,9.77
2023-04-19T07:28:56.696Z,10.43
2023-04-19T07:31:28.143Z,9.40
2023-04-19T07:33:58.745Z,10.33
2023-04-19T07:36:30.297Z,9.90
2023-04-19T07:39:00.619Z,8.93
2023-04-19T07:41:30.943Z,8.07
2023-04-19T07:44:01.475Z,8.67
2023-04-19T07:46:31.869Z,8.17
2023-04-19T07:49:04.482Z,8.93
2023-04-19T07:51:34.893Z,8.03
2023-04-19T07:54:05.028Z,7.80
2023-04-19T07:56:36.525Z,7.93
2023-04-19T07:59:09.684Z,8.13
2023-04-19T08:01:39.970Z,9.23
2023-04-19T08:04:10.774Z,8.67
2023-04-19T08:06:44.799Z,8.00
2023-04-19T08:09:14.800Z,8.13
2023-04-19T08:11:45.467Z,7.80
2023-04-19T08:14:28.400Z,8.77
2023-04-19T08:19:38.579Z,7.93
2023-04-19T08:22:09.292Z,7.43
2023-04-19T08:24:39.027Z,7.93
2023-04-19T08:27:09.322Z,8.43
2023-04-19T08:29:39.453Z,8.37
2023-04-19T08:32:10.040Z,7.87
2023-04-19T08:34:40.732Z,8.50
2023-04-19T08:37:11.025Z,8.07
2023-04-19T08:39:41.142Z,7.53
2023-04-19T08:42:24.837Z,7.70
2023-04-19T08:47:51.990Z,7.23
2023-04-19T08:50:34.334Z,7.07
2023-04-19T08:56:03.529Z,8.17
2023-04-19T08:58:57.050Z,8.40
2023-04-19T09:01:35.368Z,7.43
2023-04-19T09:04:26.377Z,6.27
2023-04-19T09:06:58.102Z,6.70
2023-04-19T09:09:38.772Z,7.70
2023-04-19T09:12:18.781Z,6.87
2023-04-19T09:17:22.155Z,6.80
2023-04-19T09:19:52.252Z,7.37
2023-04-19T09:22:22.981Z,6.43
2023-04-19T09:25:34.010Z,6.00
2023-04-19T09:27:44.738Z,6.17
2023-04-19T09:30:29.997Z,6.87
2023-04-19T09:33:02.692Z,5.97
2023-04-19T09:35:42.914Z,6.50
2023-04-19T09:38:13.249Z,6.03
2023-04-19T09:40:47.190Z,5.73
2023-04-19T09:43:57.537Z,5.60
2023-04-19T09:46:35.684Z,4.90
2023-04-19T09:49:27.885Z,5.53
2023-04-19T09:52:01.046Z,4.87
2023-04-19T09:54:32.390Z,4.93
2023-04-19T09:57:03.340Z,4.72
2023-04-19T09:59:34.061Z,5.17
2023-04-19T10:02:06.869Z,5.07
2023-04-19T10:09:53.650Z,4.87
2023-04-19T10:14:59.226Z,4.90
2023-04-19T10:17:29.690Z,5.33
2023-04-19T10:20:06.258Z,5.20
2023-04-19T10:22:38.920Z,4.70
2023-04-19T10:25:17.089Z,5.57
2023-04-19T10:27:48.598Z,4.63
2023-04-19T10:30:23.421Z,4.57
2023-04-19T10:32:55.697Z,4.83
2023-04-19T10:35:28.841Z,4.60
2023-04-19T10:38:07.217Z,4.47
2023-04-19T10:41:03.424Z,4.53
2023-04-19T10:43:34.840Z,4.93
2023-04-19T10:46:13.716Z,5.65
2023-04-19T10:48:54.069Z,5.00
2023-04-19T10:51:27.396Z,4.70
2023-04-19T10:53:59.199Z,5.27
2023-04-19T10:57:10.878Z,4.67
2023-04-19T10:59:43.729Z,4.55
2023-04-19T11:02:32.201Z,4.27
2023-04-19T11:05:03.863Z,4.37
2023-04-19T11:07:42.462Z,5.17
2023-04-19T11:10:13.487Z,5.23
2023-04-19T11:12:46.811Z,4.70
2023-04-19T11:15:16.748Z,4.20
2023-04-19T11:18:01.017Z,4.93
2023-04-19T11:20:42.947Z,4.27
2023-04-19T11:23:19.029Z,4.73
2023-04-19T11:25:52.630Z,4.63
2023-04-19T11:28:24.194Z,4.17
2023-04-19T11:30:56.791Z,4.80
2023-04-19T11:33:28.307Z,5.90
2023-04-19T11:35:58.429Z,4.50
2023-04-19T11:38:30.395Z,4.17
2023-04-19T11:41:01.732Z,4.87
2023-04-19T11:43:36.588Z,5.17
2023-04-19T11:46:11.893Z,3.73
2023-04-19T11:48:52.800Z,4.17
2023-04-19T11:51:23.316Z,4.10
2023-04-19T11:53:53.653Z,4.80
2023-04-19T11:56:24.366Z,3.90
2023-04-19T11:58:58.914Z,3.98
2023-04-19T12:01:31.806Z,4.10
2023-04-19T12:04:04.710Z,4.20
2023-04-19T12:06:35.078Z,4.40
2023-04-19T12:09:08.879Z,4.20
2023-04-19T12:11:45.787Z,4.03
2023-04-19T12:14:17.808Z,4.43
2023-04-19T12:17:05.577Z,4.07
2023-04-19T12:19:42.413Z,4.00
2023-04-19T12:22:14.376Z,4.80
2023-04-19T12:27:17.513Z,4.10
2023-04-19T12:29:47.926Z,3.77
2023-04-19T12:32:18.653Z,4.20
2023-04-19T12:34:49.392Z,4.10
2023-04-19T12:37:19.532Z,4.43
2023-04-19T12:39:49.830Z,4.07
2023-04-19T12:42:20.146Z,3.60
2023-04-19T12:44:50.677Z,4.20
2023-04-19T12:47:21.023Z,4.27
2023-04-19T12:49:51.112Z,3.73
2023-04-19T12:52:21.852Z,4.57
2023-04-19T12:54:52.581Z,4.13
2023-04-19T12:57:23.942Z,4.90
2023-04-19T12:59:54.467Z,4.42
2023-04-19T13:02:25.124Z,3.77
2023-04-19T13:04:55.852Z,4.43
2023-04-19T13:07:26.243Z,3.63
2023-04-19T13:09:57.191Z,4.30
2023-04-19T13:12:28.383Z,3.70
2023-04-19T13:14:58.860Z,4.17
2023-04-19T13:17:30.217Z,3.73
2023-04-19T13:20:00.524Z,4.37
2023-04-19T13:22:31.046Z,4.23
2023-04-19T13:25:01.179Z,5.00
2023-04-19T13:27:32.513Z,5.83
2023-04-19T13:30:03.244Z,6.65
2023-04-19T13:32:33.239Z,6.70
2023-04-19T13:35:03.684Z,6.47
2023-04-19T13:37:33.808Z,6.47
2023-04-19T13:40:17.929Z,6.80
2023-04-19T13:42:50.232Z,7.00
2023-04-19T13:45:20.751Z,7.23
2023-04-19T13:47:51.913Z,6.50
2023-04-19T13:50:23.238Z,7.07
2023-04-19T13:55:43.137Z,7.50
2023-04-19T13:58:14.214Z,7.75
2023-04-19T14:00:44.419Z,7.23
2023-04-19T14:03:14.717Z,7.40
2023-04-19T14:05:45.496Z,7.30
2023-04-19T14:08:15.778Z,7.17
2023-04-19T14:10:46.527Z,7.43
2023-04-19T14:13:16.630Z,8.00
2023-04-19T14:15:47.380Z,7.50
2023-04-19T14:18:17.524Z,7.70
2023-04-19T14:20:47.832Z,8.80
2023-04-19T14:23:20.175Z,8.27
2023-04-19T14:25:50.947Z,7.97
2023-04-19T14:28:23.973Z,8.30
2023-04-19T14:30:54.425Z,7.83
2023-04-19T14:33:26.301Z,8.03
2023-04-19T14:35:57.523Z,8.27
2023-04-19T14:38:28.285Z,8.53
2023-04-19T14:40:58.217Z,9.07
2023-04-19T14:43:28.706Z,9.70
2023-04-19T14:45:58.868Z,10.17
2023-04-19T14:48:28.798Z,9.73
2023-04-19T14:50:59.056Z,9.87
2023-04-19T14:53:29.390Z,9.87
2023-04-19T14:56:00.121Z,10.43
2023-04-19T14:58:30.836Z,9.57
2023-04-19T15:01:10.235Z,10.47
2023-04-19T15:03:41.400Z,10.83
2023-04-19T15:06:12.051Z,10.72
2023-04-19T15:08:42.779Z,10.87
2023-04-19T15:11:13.101Z,10.87
2023-04-19T15:13:43.236Z,12.67
2023-04-19T15:16:13.783Z,12.37
2023-04-19T15:18:43.817Z,13.33
2023-04-19T15:21:13.984Z,12.40
2023-04-19T15:23:43.897Z,13.17
2023-04-19T15:26:14.222Z,13.23
2023-04-19T15:28:44.750Z,11.37
2023-04-19T15:31:15.942Z,10.07
2023-04-19T15:33:46.424Z,9.33
2023-04-19T15:36:16.943Z,8.53
2023-04-19T15:38:47.281Z,7.97
2023-04-19T15:41:18.828Z,6.93
2023-04-19T15:43:49.555Z,8.08
2023-04-19T15:46:19.894Z,7.40
2023-04-19T15:48:50.407Z,7.10
2023-04-19T15:51:21.144Z,6.83
2023-04-19T15:53:51.700Z,7.30
2023-04-19T15:56:21.580Z,7.70
2023-04-19T15:58:52.105Z,7.67
2023-04-19T16:01:23.292Z,8.53
2023-04-19T16:03:53.641Z,8.10
2023-04-19T16:06:25.539Z,8.33
2023-04-19T16:08:55.652Z,8.03
2023-04-19T16:11:26.639Z,7.80
2023-04-19T16:13:56.709Z,6.93
2023-04-19T16:16:30.507Z,6.53
2023-04-19T16:19:01.681Z,6.77
2023-04-19T16:21:32.382Z,6.37
2023-04-19T16:24:02.370Z,6.93
2023-04-19T16:26:33.038Z,7.97
2023-04-19T16:29:03.358Z,9.10
2023-04-19T16:31:33.684Z,10.20
2023-04-19T16:34:04.225Z,11.20
2023-04-19T16:36:34.533Z,10.70
2023-04-19T16:39:05.668Z,9.97
2023-04-19T16:41:36.197Z,14.80
2023-04-19T16:44:06.544Z,10.23
2023-04-19T16:46:36.859Z,8.90
2023-04-19T16:49:07.200Z,8.77
2023-04-19T16:51:37.497Z,8.43
2023-04-19T16:54:07.813Z,9.57
2023-04-19T16:56:37.936Z,9.80
2023-04-19T16:59:08.251Z,11.70
2023-04-19T17:01:38.429Z,12.47
2023-04-19T17:04:09.559Z,13.50
2023-04-19T17:06:40.456Z,14.33
2023-04-19T17:09:10.772Z,15.73
2023-04-19T17:11:40.899Z,36.13
2023-04-19T17:14:11.219Z,35.37
2023-04-19T17:16:41.543Z,22.50
2023-04-19T17:19:12.064Z,16.50
2023-04-19T17:21:42.593Z,14.20
2023-04-19T17:24:13.329Z,13.97
2023-04-19T17:26:43.647Z,15.13
2023-04-19T17:29:13.972Z,14.53
2023-04-19T17:31:44.777Z,15.97
2023-04-19T17:34:15.640Z,15.83
2023-04-19T17:36:45.763Z,13.70
2023-04-19T17:39:15.646Z,12.33
2023-04-19T17:41:46.611Z,12.00
2023-04-19T17:44:17.545Z,12.53
2023-04-19T17:46:48.099Z,12.40
2023-04-19T17:49:21.661Z,11.93
2023-04-19T17:51:52.814Z,11.30
2023-04-19T17:54:23.756Z,12.10
2023-04-19T17:56:55.308Z,11.50
2023-04-19T17:59:26.035Z,11.48
2023-04-19T18:01:57.307Z,11.57
2023-04-19T18:04:27.845Z,22.30
2023-04-19T18:06:59.062Z,28.20
2023-04-19T18:09:29.623Z,30.90
2023-04-19T18:12:02.360Z,34.40
2023-04-19T18:14:35.138Z,33.60
2023-04-19T18:17:05.883Z,36.33
2023-04-19T18:19:40.039Z,29.87
2023-04-19T18:22:10.822Z,23.03
2023-04-19T18:24:43.206Z,22.43
2023-04-19T18:27:14.128Z,16.60
2023-04-19T18:29:44.658Z,15.30
2023-04-19T18:32:16.236Z,16.27
2023-04-19T18:34:47.354Z,13.43
2023-04-19T18:37:19.517Z,12.70
2023-04-19T18:39:49.838Z,12.57
2023-04-19T18:42:20.770Z,12.77
2023-04-19T18:44:54.234Z,13.30
2023-04-19T18:47:27.252Z,12.57
2023-04-19T18:50:05.176Z,12.37
2023-04-19T18:52:38.781Z,12.93
2023-04-19T18:55:13.316Z,12.90
2023-04-19T18:57:43.808Z,11.63
2023-04-19T19:00:19.609Z,12.47
2023-04-19T19:02:50.977Z,12.77
2023-04-19T19:05:22.078Z,12.80
2023-04-19T19:07:52.815Z,12.23
2023-04-19T19:10:41.281Z,13.67
2023-04-19T19:13:15.454Z,14.40
2023-04-19T19:15:46.203Z,16.67
2023-04-19T19:18:18.126Z,20.60
2023-04-19T19:20:51.260Z,22.65
2023-04-19T19:23:34.689Z,23.17
2023-04-19T19:26:05.927Z,21.37
2023-04-19T19:28:37.877Z,25.30
2023-04-19T19:31:09.255Z,27.03
2023-04-19T19:33:40.870Z,27.10
2023-04-19T19:36:11.459Z,28.40
2023-04-19T19:38:42.834Z,28.73
2023-04-19T21:15:50.857Z,23.63
2023-04-19T21:18:22.372Z,23.27
2023-04-19T21:20:52.899Z,18.73
2023-04-19T21:23:25.269Z,17.92
2023-04-19T21:25:55.589Z,18.03
2023-04-19T21:28:26.325Z,17.43
2023-04-19T21:30:57.269Z,16.80
2023-04-19T21:33:28.816Z,16.90
2023-04-19T21:36:00.366Z,16.67
2023-04-19T21:38:31.714Z,16.73
2023-04-19T21:41:02.046Z,15.13
2023-04-19T21:43:32.371Z,16.70
2023-04-19T21:46:04.578Z,16.57
2023-04-19T21:48:36.144Z,15.93
2023-04-19T21:51:08.377Z,17.32
2023-04-19T21:53:39.184Z,17.03
2023-04-19T21:56:10.325Z,18.10
2023-04-19T21:58:40.658Z,18.37
2023-04-19T22:01:11.021Z,17.97
2023-04-19T22:03:41.471Z,17.70
2023-04-19T22:06:16.687Z,17.03
2023-04-19T22:08:48.082Z,18.67
2023-04-19T22:11:19.635Z,19.00
2023-04-19T22:13:50.177Z,18.73
2023-04-19T22:16:21.118Z,17.53
2023-04-19T22:18:51.257Z,18.13
2023-04-19T22:21:21.535Z,18.43
2023-04-19T22:23:52.089Z,18.23
2023-04-19T22:26:22.588Z,19.33
2023-04-19T22:28:53.948Z,18.90
2023-04-19T22:31:23.858Z,17.73
2023-04-19T22:33:53.768Z,20.00
2023-04-19T22:36:27.771Z,19.30
2023-04-19T22:38:58.916Z,18.97
2023-04-19T22:41:28.824Z,18.77
2023-04-19T22:43:58.952Z,18.80
2023-04-19T22:46:29.292Z,18.97
2023-04-19T22:48:59.173Z,17.20
2023-04-19T22:51:29.851Z,15.40
2023-04-19T22:54:00.232Z,18.70
2023-04-19T22:56:31.582Z,17.57
2023-04-19T22:59:17.064Z,16.40
2023-04-19T23:01:48.217Z,15.80
2023-04-19T23:04:19.511Z,15.33
2023-04-19T23:06:49.665Z,15.33
2023-04-19T23:09:19.993Z,14.77
2023-04-19T23:11:50.113Z,14.67
2023-04-19T23:14:20.227Z,16.50
2023-04-19T23:16:51.980Z,16.47
2023-04-19T23:19:22.799Z,15.75
2023-04-19T23:21:53.452Z,15.07
2023-04-19T23:24:24.997Z,15.53
2023-04-19T23:26:55.122Z,15.30
2023-04-19T23:29:25.848Z,16.07
2023-04-19T23:31:56.991Z,15.83
2023-04-19T23:34:27.325Z,15.00
2023-04-19T23:36:57.455Z,15.97
2023-04-19T23:39:27.555Z,16.10
2023-04-19T23:41:57.670Z,15.90
2023-04-19T23:44:29.840Z,16.67
2023-04-19T23:49:31.300Z,19.23
2023-04-19T23:52:02.443Z,18.37
2023-04-19T23:54:32.360Z,18.07
2023-04-19T23:57:02.676Z,18.53
2023-04-19T23:59:32.800Z,17.50
